sensor_id;sensor_type;location;lat;lon;timestamp;P1;durP1;ratioP1;P2;durP2;ratioP2
3066;SDS011;1544;48.834;9.194;2022-09-09T00:02:32;3.03;;;1.30;;
3066;SDS011;1544;48.834;9.194;2022-09-09T00:05:16;2.23;;;1.63;;
3066;SDS011;1544;48.834;9.194;2022-09-09T00:08:01;2.03;;;1.33;;
3066;SDS011;1544;48.834;9.194;2022-09-09T00:10:38;1.30;;;1.20;;
3066;SDS011;1544;48.834;9.194;2022-09-09T00:13:18;3.57;;;1.30;;
3066;SDS011;1544;48.834;9.194;2022-09-09T00:16:17;2.30;;;1.13;;
3066;SDS011;1544;48.834;9.194;2022-09-09T00:19:05;2.00;;;1.10;;
3066;SDS011;1544;48.834;9.194;2022-09-09T00:22:12;2.90;;;1.20;;
3066;SDS011;1544;48.834;9.194;2022-09-09T00:24:54;2.17;;;1.20;;
3066;SDS011;1544;48.834;9.194;2022-09-09T00:27:41;1.93;;;1.30;;
3066;SDS011;1544;48.834;9.194;2022-09-09T00:30:26;2.27;;;1.30;;
3066;SDS011;1544;48.834;9.194;2022-09-09T00:33:10;1.67;;;1.20;;
3066;SDS011;1544;48.834;9.194;2022-09-09T00:35:52;1.90;;;1.07;;
3066;SDS011;1544;48.834;9.194;2022-09-09T00:38:33;1.83;;;1.20;;
3066;SDS011;1544;48.834;9.194;2022-09-09T00:41:20;1.80;;;1.00;;
3066;SDS011;1544;48.834;9.194;2022-09-09T00:56:14;1.27;;;1.00;;
3066;SDS011;1544;48.834;9.194;2022-09-09T00:59:08;1.80;;;1.00;;
3066;SDS011;1544;48.834;9.194;2022-09-09T01:02:13;0.80;;;0.80;;
3066;SDS011;1544;48.834;9.194;2022-09-09T01:05:12;1.23;;;1.00;;
3066;SDS011;1544;48.834;9.194;2022-09-09T01:07:56;1.10;;;1.10;;
3066;SDS011;1544;48.834;9.194;2022-09-09T01:10:48;0.83;;;0.73;;
3066;SDS011;1544;48.834;9.194;2022-09-09T01:13:34;0.80;;;0.80;;
3066;SDS011;1544;48.834;9.194;2022-09-09T01:16:14;1.70;;;1.00;;
3066;SDS011;1544;48.834;9.194;2022-09-09T01:18:51;1.50;;;1.00;;
3066;SDS011;1544;48.834;9.194;2022-09-09T01:24:38;0.90;;;0.90;;
3066;SDS011;1544;48.834;9.194;2022-09-09T01:27:51;1.50;;;1.00;;
3066;SDS011;1544;48.834;9.194;2022-09-09T01:30:30;1.00;;;1.00;;
3066;SDS011;1544;48.834;9.194;2022-09-09T01:33:11;1.63;;;1.07;;
3066;SDS011;1544;48.834;9.194;2022-09-09T01:35:56;2.70;;;1.00;;
3066;SDS011;1544;48.834;9.194;2022-09-09T01:38:45;2.33;;;0.90;;
3066;SDS011;1544;48.834;9.194;2022-09-09T01:41:21;1.57;;;1.20;;
3066;SDS011;1544;48.834;9.194;2022-09-09T01:44:04;1.03;;;0.73;;
3066;SDS011;1544;48.834;9.194;2022-09-09T01:46:42;1.60;;;0.90;;
3066;SDS011;1544;48.834;9.194;2022-09-09T01:49:22;1.20;;;0.73;;
3066;SDS011;1544;48.834;9.194;2022-09-09T01:51:57;1.10;;;0.70;;
3066;SDS011;1544;48.834;9.194;2022-09-09T01:54:38;0.70;;;0.70;;
3066;SDS011;1544;48.834;9.194;2022-09-09T02:00:02;0.90;;;0.80;;
3066;SDS011;1544;48.834;9.194;2022-09-09T02:02:52;1.13;;;0.80;;
3066;SDS011;1544;48.834;9.194;2022-09-09T02:06:10;1.13;;;0.70;;
3066;SDS011;1544;48.834;9.194;2022-09-09T02:09:24;1.53;;;1.20;;
3066;SDS011;1544;48.834;9.194;2022-09-09T02:12:05;2.00;;;0.70;;
3066;SDS011;1544;48.834;9.194;2022-09-09T02:15:00;1.63;;;1.07;;
3066;SDS011;1544;48.834;9.194;2022-09-09T02:17:51;3.23;;;0.80;;
3066;SDS011;1544;48.834;9.194;2022-09-09T02:20:28;1.10;;;0.70;;
3066;SDS011;1544;48.834;9.194;2022-09-09T02:23:09;1.27;;;0.70;;
3066;SDS011;1544;48.834;9.194;2022-09-09T02:25:48;1.67;;;0.90;;
3066;SDS011;1544;48.834;9.194;2022-09-09T02:28:29;1.30;;;0.80;;
3066;SDS011;1544;48.834;9.194;2022-09-09T02:31:07;0.80;;;0.80;;
3066;SDS011;1544;48.834;9.194;2022-09-09T02:33:47;0.80;;;0.70;;
3066;SDS011;1544;48.834;9.194;2022-09-09T02:36:35;0.90;;;0.80;;
3066;SDS011;1544;48.834;9.194;2022-09-09T02:39:13;0.80;;;0.80;;
3066;SDS011;1544;48.834;9.194;2022-09-09T02:41:49;2.07;;;0.83;;
3066;SDS011;1544;48.834;9.194;2022-09-09T02:44:25;1.40;;;0.70;;
3066;SDS011;1544;48.834;9.194;2022-09-09T02:50:25;1.63;;;0.90;;
3066;SDS011;1544;48.834;9.194;2022-09-09T02:55:59;1.00;;;1.00;;
3066;SDS011;1544;48.834;9.194;2022-09-09T02:58:42;0.80;;;0.80;;
3066;SDS011;1544;48.834;9.194;2022-09-09T03:01:18;0.90;;;0.90;;
3066;SDS011;1544;48.834;9.194;2022-09-09T03:03:53;0.90;;;0.77;;
3066;SDS011;1544;48.834;9.194;2022-09-09T03:06:30;1.23;;;1.00;;
3066;SDS011;1544;48.834;9.194;2022-09-09T03:09:13;1.10;;;1.00;;
3066;SDS011;1544;48.834;9.194;2022-09-09T03:11:49;1.77;;;0.90;;
3066;SDS011;1544;48.834;9.194;2022-09-09T03:14:25;1.00;;;0.90;;
3066;SDS011;1544;48.834;9.194;2022-09-09T03:17:00;1.63;;;0.90;;
3066;SDS011;1544;48.834;9.194;2022-09-09T03:19:42;1.60;;;1.20;;
3066;SDS011;1544;48.834;9.194;2022-09-09T03:22:19;1.67;;;1.20;;
3066;SDS011;1544;48.834;9.194;2022-09-09T03:24:55;2.17;;;1.47;;
3066;SDS011;1544;48.834;9.194;2022-09-09T03:27:30;1.00;;;0.90;;
3066;SDS011;1544;48.834;9.194;2022-09-09T03:30:06;1.00;;;0.90;;
3066;SDS011;1544;48.834;9.194;2022-09-09T03:32:41;1.20;;;0.80;;
3066;SDS011;1544;48.834;9.194;2022-09-09T03:35:22;0.70;;;0.70;;
3066;SDS011;1544;48.834;9.194;2022-09-09T03:37:57;2.20;;;0.90;;
3066;SDS011;1544;48.834;9.194;2022-09-09T03:40:32;1.60;;;0.90;;
3066;SDS011;1544;48.834;9.194;2022-09-09T03:43:08;1.37;;;1.10;;
3066;SDS011;1544;48.834;9.194;2022-09-09T03:45:47;2.03;;;1.30;;
3066;SDS011;1544;48.834;9.194;2022-09-09T03:48:23;1.70;;;1.60;;
3066;SDS011;1544;48.834;9.194;2022-09-09T03:50:59;1.70;;;1.37;;
3066;SDS011;1544;48.834;9.194;2022-09-09T03:53:37;2.57;;;1.10;;
3066;SDS011;1544;48.834;9.194;2022-09-09T03:56:12;1.73;;;1.27;;
3066;SDS011;1544;48.834;9.194;2022-09-09T03:58:47;1.33;;;1.20;;
3066;SDS011;1544;48.834;9.194;2022-09-09T04:01:22;1.40;;;1.03;;
3066;SDS011;1544;48.834;9.194;2022-09-09T04:03:57;1.80;;;1.10;;
3066;SDS011;1544;48.834;9.194;2022-09-09T04:06:32;2.40;;;2.20;;
3066;SDS011;1544;48.834;9.194;2022-09-09T04:09:08;3.20;;;1.90;;
3066;SDS011;1544;48.834;9.194;2022-09-09T04:11:43;3.00;;;1.67;;
3066;SDS011;1544;48.834;9.194;2022-09-09T04:14:21;1.50;;;1.40;;
3066;SDS011;1544;48.834;9.194;2022-09-09T04:16:56;1.53;;;1.30;;
3066;SDS011;1544;48.834;9.194;2022-09-09T04:19:33;6.27;;;1.60;;
3066;SDS011;1544;48.834;9.194;2022-09-09T04:22:08;4.30;;;2.00;;
3066;SDS011;1544;48.834;9.194;2022-09-09T04:24:44;3.07;;;2.00;;
3066;SDS011;1544;48.834;9.194;2022-09-09T04:27:24;2.43;;;1.60;;
3066;SDS011;1544;48.834;9.194;2022-09-09T04:29:59;3.30;;;1.57;;
3066;SDS011;1544;48.834;9.194;2022-09-09T04:32:37;1.70;;;1.60;;
3066;SDS011;1544;48.834;9.194;2022-09-09T04:35:13;3.20;;;1.60;;
3066;SDS011;1544;48.834;9.194;2022-09-09T04:37:48;4.20;;;1.63;;
3066;SDS011;1544;48.834;9.194;2022-09-09T04:40:23;2.83;;;1.60;;
3066;SDS011;1544;48.834;9.194;2022-09-09T04:43:00;1.80;;;1.50;;
3066;SDS011;1544;48.834;9.194;2022-09-09T04:45:39;1.80;;;1.40;;
3066;SDS011;1544;48.834;9.194;2022-09-09T04:48:14;4.10;;;1.40;;
3066;SDS011;1544;48.834;9.194;2022-09-09T04:50:56;1.97;;;1.20;;
3066;SDS011;1544;48.834;9.194;2022-09-09T04:53:36;5.80;;;1.90;;
3066;SDS011;1544;48.834;9.194;2022-09-09T04:56:13;1.37;;;1.27;;
3066;SDS011;1544;48.834;9.194;2022-09-09T04:58:55;3.30;;;1.60;;
3066;SDS011;1544;48.834;9.194;2022-09-09T05:01:40;2.00;;;1.10;;
3066;SDS011;1544;48.834;9.194;2022-09-09T05:04:16;1.27;;;1.20;;
3066;SDS011;1544;48.834;9.194;2022-09-09T05:06:51;2.00;;;1.53;;
3066;SDS011;1544;48.834;9.194;2022-09-09T05:09:26;1.10;;;1.10;;
3066;SDS011;1544;48.834;9.194;2022-09-09T05:12:01;1.30;;;1.10;;
3066;SDS011;1544;48.834;9.194;2022-09-09T05:14:41;1.10;;;1.00;;
3066;SDS011;1544;48.834;9.194;2022-09-09T05:17:17;1.77;;;0.90;;
3066;SDS011;1544;48.834;9.194;2022-09-09T05:19:53;1.50;;;1.10;;
3066;SDS011;1544;48.834;9.194;2022-09-09T05:22:28;3.00;;;1.00;;
3066;SDS011;1544;48.834;9.194;2022-09-09T05:25:03;1.17;;;1.03;;
3066;SDS011;1544;48.834;9.194;2022-09-09T05:27:38;7.50;;;1.40;;
3066;SDS011;1544;48.834;9.194;2022-09-09T05:30:14;1.50;;;1.07;;
3066;SDS011;1544;48.834;9.194;2022-09-09T05:32:49;1.70;;;1.00;;
3066;SDS011;1544;48.834;9.194;2022-09-09T05:35:25;1.43;;;0.93;;
3066;SDS011;1544;48.834;9.194;2022-09-09T05:38:01;1.47;;;1.07;;
3066;SDS011;1544;48.834;9.194;2022-09-09T05:40:36;2.60;;;1.33;;
3066;SDS011;1544;48.834;9.194;2022-09-09T05:43:11;1.30;;;1.00;;
3066;SDS011;1544;48.834;9.194;2022-09-09T05:45:47;1.40;;;1.20;;
3066;SDS011;1544;48.834;9.194;2022-09-09T05:48:23;1.30;;;1.20;;
3066;SDS011;1544;48.834;9.194;2022-09-09T05:50:58;2.13;;;1.27;;
3066;SDS011;1544;48.834;9.194;2022-09-09T05:53:34;2.43;;;1.30;;
3066;SDS011;1544;48.834;9.194;2022-09-09T05:56:11;2.00;;;1.10;;
3066;SDS011;1544;48.834;9.194;2022-09-09T05:58:53;1.10;;;1.00;;
3066;SDS011;1544;48.834;9.194;2022-09-09T06:01:31;1.67;;;1.20;;
3066;SDS011;1544;48.834;9.194;2022-09-09T06:04:09;2.20;;;1.10;;
3066;SDS011;1544;48.834;9.194;2022-09-09T06:06:46;1.40;;;1.20;;
3066;SDS011;1544;48.834;9.194;2022-09-09T06:09:24;2.50;;;1.20;;
3066;SDS011;1544;48.834;9.194;2022-09-09T06:12:00;1.47;;;1.10;;
3066;SDS011;1544;48.834;9.194;2022-09-09T06:14:38;1.40;;;1.30;;
3066;SDS011;1544;48.834;9.194;2022-09-09T06:17:19;1.40;;;1.20;;
3066;SDS011;1544;48.834;9.194;2022-09-09T06:19:55;1.27;;;1.17;;
3066;SDS011;1544;48.834;9.194;2022-09-09T06:22:30;1.13;;;1.03;;
3066;SDS011;1544;48.834;9.194;2022-09-09T06:25:05;1.10;;;1.00;;
3066;SDS011;1544;48.834;9.194;2022-09-09T06:27:43;1.30;;;1.20;;
3066;SDS011;1544;48.834;9.194;2022-09-09T06:30:24;1.20;;;1.10;;
3066;SDS011;1544;48.834;9.194;2022-09-09T06:32:59;1.30;;;1.20;;
3066;SDS011;1544;48.834;9.194;2022-09-09T06:35:35;2.00;;;1.40;;
3066;SDS011;1544;48.834;9.194;2022-09-09T06:38:10;2.30;;;1.00;;
3066;SDS011;1544;48.834;9.194;2022-09-09T06:40:53;1.53;;;0.90;;
3066;SDS011;1544;48.834;9.194;2022-09-09T06:43:30;1.10;;;0.70;;
3066;SDS011;1544;48.834;9.194;2022-09-09T06:46:11;2.53;;;0.90;;
3066;SDS011;1544;48.834;9.194;2022-09-09T06:48:49;1.57;;;0.80;;
3066;SDS011;1544;48.834;9.194;2022-09-09T06:51:32;1.33;;;0.73;;
3066;SDS011;1544;48.834;9.194;2022-09-09T06:54:11;1.00;;;0.90;;
3066;SDS011;1544;48.834;9.194;2022-09-09T06:56:49;1.13;;;0.93;;
3066;SDS011;1544;48.834;9.194;2022-09-09T06:59:29;0.77;;;0.77;;
3066;SDS011;1544;48.834;9.194;2022-09-09T07:02:07;1.33;;;0.93;;
3066;SDS011;1544;48.834;9.194;2022-09-09T07:04:42;1.83;;;0.90;;
3066;SDS011;1544;48.834;9.194;2022-09-09T07:07:17;1.17;;;1.07;;
3066;SDS011;1544;48.834;9.194;2022-09-09T07:09:53;2.37;;;0.90;;
3066;SDS011;1544;48.834;9.194;2022-09-09T07:12:28;1.10;;;0.80;;
3066;SDS011;1544;48.834;9.194;2022-09-09T07:15:06;1.30;;;0.90;;
3066;SDS011;1544;48.834;9.194;2022-09-09T07:17:41;2.23;;;1.30;;
3066;SDS011;1544;48.834;9.194;2022-09-09T07:20:16;1.40;;;1.00;;
3066;SDS011;1544;48.834;9.194;2022-09-09T07:22:54;1.40;;;1.30;;
3066;SDS011;1544;48.834;9.194;2022-09-09T07:25:30;2.27;;;1.10;;
3066;SDS011;1544;48.834;9.194;2022-09-09T07:28:05;1.77;;;1.00;;
3066;SDS011;1544;48.834;9.194;2022-09-09T07:30:43;4.90;;;1.23;;
3066;SDS011;1544;48.834;9.194;2022-09-09T07:33:18;2.27;;;1.20;;
3066;SDS011;1544;48.834;9.194;2022-09-09T07:36:01;1.67;;;1.00;;
3066;SDS011;1544;48.834;9.194;2022-09-09T07:38:50;4.27;;;1.50;;
3066;SDS011;1544;48.834;9.194;2022-09-09T07:41:34;1.30;;;1.20;;
3066;SDS011;1544;48.834;9.194;2022-09-09T07:44:24;1.67;;;1.10;;
3066;SDS011;1544;48.834;9.194;2022-09-09T07:47:08;3.37;;;1.10;;
3066;SDS011;1544;48.834;9.194;2022-09-09T07:49:50;1.03;;;0.93;;
3066;SDS011;1544;48.834;9.194;2022-09-09T07:52:33;2.40;;;1.10;;
3066;SDS011;1544;48.834;9.194;2022-09-09T07:55:11;1.93;;;1.10;;
3066;SDS011;1544;48.834;9.194;2022-09-09T07:57:46;0.90;;;0.90;;
3066;SDS011;1544;48.834;9.194;2022-09-09T08:00:22;1.97;;;1.03;;
3066;SDS011;1544;48.834;9.194;2022-09-09T08:03:02;1.03;;;0.90;;
3066;SDS011;1544;48.834;9.194;2022-09-09T08:05:38;0.90;;;0.90;;
3066;SDS011;1544;48.834;9.194;2022-09-09T08:08:15;2.80;;;1.10;;
3066;SDS011;1544;48.834;9.194;2022-09-09T08:10:50;1.00;;;0.90;;
3066;SDS011;1544;48.834;9.194;2022-09-09T08:13:27;2.67;;;0.80;;
3066;SDS011;1544;48.834;9.194;2022-09-09T08:16:06;2.50;;;1.10;;
3066;SDS011;1544;48.834;9.194;2022-09-09T08:18:58;1.23;;;0.90;;
3066;SDS011;1544;48.834;9.194;2022-09-09T08:21:35;1.50;;;0.93;;
3066;SDS011;1544;48.834;9.194;2022-09-09T08:24:13;1.47;;;1.00;;
3066;SDS011;1544;48.834;9.194;2022-09-09T08:26:53;3.73;;;0.80;;
3066;SDS011;1544;48.834;9.194;2022-09-09T08:29:31;1.77;;;0.93;;
3066;SDS011;1544;48.834;9.194;2022-09-09T08:32:06;2.07;;;0.83;;
3066;SDS011;1544;48.834;9.194;2022-09-09T08:34:43;1.97;;;0.90;;
3066;SDS011;1544;48.834;9.194;2022-09-09T08:37:24;1.00;;;0.90;;
3066;SDS011;1544;48.834;9.194;2022-09-09T08:40:01;1.57;;;0.80;;
3066;SDS011;1544;48.834;9.194;2022-09-09T08:42:40;1.20;;;0.87;;
3066;SDS011;1544;48.834;9.194;2022-09-09T08:45:29;1.47;;;0.73;;
3066;SDS011;1544;48.834;9.194;2022-09-09T08:48:50;1.83;;;0.90;;
3066;SDS011;1544;48.834;9.194;2022-09-09T08:51:54;1.33;;;0.80;;
3066;SDS011;1544;48.834;9.194;2022-09-09T08:54:31;1.97;;;0.63;;
3066;SDS011;1544;48.834;9.194;2022-09-09T08:57:26;1.97;;;0.83;;
3066;SDS011;1544;48.834;9.194;2022-09-09T09:00:04;3.10;;;1.10;;
3066;SDS011;1544;48.834;9.194;2022-09-09T09:08:55;0.80;;;0.70;;
3066;SDS011;1544;48.834;9.194;2022-09-09T09:11:48;1.90;;;0.70;;
3066;SDS011;1544;48.834;9.194;2022-09-09T09:14:55;2.00;;;0.70;;
3066;SDS011;1544;48.834;9.194;2022-09-09T09:17:33;1.63;;;0.70;;
3066;SDS011;1544;48.834;9.194;2022-09-09T09:20:13;0.80;;;0.60;;
3066;SDS011;1544;48.834;9.194;2022-09-09T09:22:52;1.70;;;0.63;;
3066;SDS011;1544;48.834;9.194;2022-09-09T09:25:35;1.17;;;0.70;;
3066;SDS011;1544;48.834;9.194;2022-09-09T09:28:24;1.13;;;0.60;;
3066;SDS011;1544;48.834;9.194;2022-09-09T09:31:13;1.80;;;0.70;;
3066;SDS011;1544;48.834;9.194;2022-09-09T09:33:53;0.60;;;0.60;;
3066;SDS011;1544;48.834;9.194;2022-09-09T09:36:33;2.00;;;0.63;;
3066;SDS011;1544;48.834;9.194;2022-09-09T09:39:32;1.73;;;0.70;;
3066;SDS011;1544;48.834;9.194;2022-09-09T09:42:32;0.73;;;0.60;;
3066;SDS011;1544;48.834;9.194;2022-09-09T09:45:14;3.23;;;0.70;;
3066;SDS011;1544;48.834;9.194;2022-09-09T09:48:09;0.73;;;0.60;;
3066;SDS011;1544;48.834;9.194;2022-09-09T09:50:49;1.63;;;0.60;;
3066;SDS011;1544;48.834;9.194;2022-09-09T09:53:33;1.03;;;0.93;;
3066;SDS011;1544;48.834;9.194;2022-09-09T09:56:12;1.53;;;0.50;;
3066;SDS011;1544;48.834;9.194;2022-09-09T09:58:49;0.90;;;0.50;;
3066;SDS011;1544;48.834;9.194;2022-09-09T10:01:32;0.60;;;0.40;;
3066;SDS011;1544;48.834;9.194;2022-09-09T10:04:21;1.57;;;0.53;;
3066;SDS011;1544;48.834;9.194;2022-09-09T10:07:09;1.00;;;0.50;;
3066;SDS011;1544;48.834;9.194;2022-09-09T10:09:56;0.80;;;0.60;;
3066;SDS011;1544;48.834;9.194;2022-09-09T10:24:36;1.13;;;0.67;;
3066;SDS011;1544;48.834;9.194;2022-09-09T10:30:52;0.90;;;0.60;;
3066;SDS011;1544;48.834;9.194;2022-09-09T10:34:03;0.83;;;0.50;;
3066;SDS011;1544;48.834;9.194;2022-09-09T10:36:55;0.70;;;0.70;;
3066;SDS011;1544;48.834;9.194;2022-09-09T10:39:35;1.03;;;0.70;;
3066;SDS011;1544;48.834;9.194;2022-09-09T10:42:17;2.23;;;0.63;;
3066;SDS011;1544;48.834;9.194;2022-09-09T10:45:06;1.47;;;0.63;;
3066;SDS011;1544;48.834;9.194;2022-09-09T10:54:17;1.10;;;0.73;;
3066;SDS011;1544;48.834;9.194;2022-09-09T11:03:01;2.03;;;0.77;;
3066;SDS011;1544;48.834;9.194;2022-09-09T11:05:42;3.77;;;0.77;;
3066;SDS011;1544;48.834;9.194;2022-09-09T11:08:21;0.80;;;0.60;;
3066;SDS011;1544;48.834;9.194;2022-09-09T11:14:15;2.10;;;0.80;;
3066;SDS011;1544;48.834;9.194;2022-09-09T11:17:20;1.23;;;0.70;;
3066;SDS011;1544;48.834;9.194;2022-09-09T11:20:01;1.03;;;0.93;;
3066;SDS011;1544;48.834;9.194;2022-09-09T11:22:37;2.00;;;0.67;;
3066;SDS011;1544;48.834;9.194;2022-09-09T11:25:40;1.10;;;0.60;;
3066;SDS011;1544;48.834;9.194;2022-09-09T11:28:46;0.60;;;0.60;;
3066;SDS011;1544;48.834;9.194;2022-09-09T11:38:45;3.40;;;0.90;;
3066;SDS011;1544;48.834;9.194;2022-09-09T11:41:22;2.20;;;0.50;;
3066;SDS011;1544;48.834;9.194;2022-09-09T11:43:57;0.90;;;0.40;;
3066;SDS011;1544;48.834;9.194;2022-09-09T11:46:34;0.67;;;0.50;;
3066;SDS011;1544;48.834;9.194;2022-09-09T11:49:25;1.03;;;0.50;;
3066;SDS011;1544;48.834;9.194;2022-09-09T11:52:10;1.43;;;0.50;;
3066;SDS011;1544;48.834;9.194;2022-09-09T11:55:08;1.83;;;0.60;;
3066;SDS011;1544;48.834;9.194;2022-09-09T12:00:51;1.27;;;0.60;;
3066;SDS011;1544;48.834;9.194;2022-09-09T12:03:41;0.60;;;0.50;;
3066;SDS011;1544;48.834;9.194;2022-09-09T12:06:26;0.60;;;0.47;;
3066;SDS011;1544;48.834;9.194;2022-09-09T12:09:08;0.87;;;0.40;;
3066;SDS011;1544;48.834;9.194;2022-09-09T12:14:55;0.80;;;0.40;;
3066;SDS011;1544;48.834;9.194;2022-09-09T12:20:23;1.33;;;0.40;;
3066;SDS011;1544;48.834;9.194;2022-09-09T12:29:36;0.93;;;0.50;;
3066;SDS011;1544;48.834;9.194;2022-09-09T12:32:38;1.13;;;0.40;;
3066;SDS011;1544;48.834;9.194;2022-09-09T12:35:18;1.03;;;0.50;;
3066;SDS011;1544;48.834;9.194;2022-09-09T12:38:00;0.67;;;0.50;;
3066;SDS011;1544;48.834;9.194;2022-09-09T12:40:37;0.70;;;0.60;;
3066;SDS011;1544;48.834;9.194;2022-09-09T12:43:20;0.73;;;0.53;;
3066;SDS011;1544;48.834;9.194;2022-09-09T12:45:59;0.80;;;0.47;;
3066;SDS011;1544;48.834;9.194;2022-09-09T12:48:39;0.70;;;0.40;;
3066;SDS011;1544;48.834;9.194;2022-09-09T12:51:28;1.93;;;0.53;;
3066;SDS011;1544;48.834;9.194;2022-09-09T12:54:06;0.83;;;0.40;;
3066;SDS011;1544;48.834;9.194;2022-09-09T12:56:48;0.67;;;0.40;;
3066;SDS011;1544;48.834;9.194;2022-09-09T12:59:34;0.50;;;0.40;;
3066;SDS011;1544;48.834;9.194;2022-09-09T13:02:16;0.90;;;0.40;;
3066;SDS011;1544;48.834;9.194;2022-09-09T13:05:14;0.67;;;0.50;;
3066;SDS011;1544;48.834;9.194;2022-09-09T13:08:00;1.63;;;0.70;;
3066;SDS011;1544;48.834;9.194;2022-09-09T13:10:41;1.40;;;0.50;;
3066;SDS011;1544;48.834;9.194;2022-09-09T13:13:36;0.60;;;0.50;;
3066;SDS011;1544;48.834;9.194;2022-09-09T13:16:23;0.93;;;0.53;;
3066;SDS011;1544;48.834;9.194;2022-09-09T13:19:08;1.07;;;0.40;;
3066;SDS011;1544;48.834;9.194;2022-09-09T13:21:49;0.80;;;0.50;;
3066;SDS011;1544;48.834;9.194;2022-09-09T13:30:19;1.97;;;1.03;;
3066;SDS011;1544;48.834;9.194;2022-09-09T13:35:55;0.93;;;0.53;;
3066;SDS011;1544;48.834;9.194;2022-09-09T13:38:35;0.50;;;0.50;;
3066;SDS011;1544;48.834;9.194;2022-09-09T13:41:28;0.87;;;0.50;;
3066;SDS011;1544;48.834;9.194;2022-09-09T13:44:17;0.53;;;0.50;;
3066;SDS011;1544;48.834;9.194;2022-09-09T13:46:59;1.53;;;0.50;;
3066;SDS011;1544;48.834;9.194;2022-09-09T13:49:56;0.50;;;0.47;;
3066;SDS011;1544;48.834;9.194;2022-09-09T13:52:32;1.73;;;0.50;;
3066;SDS011;1544;48.834;9.194;2022-09-09T13:55:08;0.70;;;0.50;;
3066;SDS011;1544;48.834;9.194;2022-09-09T13:57:54;1.77;;;0.60;;
3066;SDS011;1544;48.834;9.194;2022-09-09T14:00:35;0.50;;;0.50;;
3066;SDS011;1544;48.834;9.194;2022-09-09T14:03:10;0.70;;;0.40;;
3066;SDS011;1544;48.834;9.194;2022-09-09T14:05:45;1.57;;;0.50;;
3066;SDS011;1544;48.834;9.194;2022-09-09T14:08:22;1.13;;;0.53;;
3066;SDS011;1544;48.834;9.194;2022-09-09T14:11:00;1.57;;;0.60;;
3066;SDS011;1544;48.834;9.194;2022-09-09T14:13:35;0.80;;;0.40;;
3066;SDS011;1544;48.834;9.194;2022-09-09T14:16:11;0.60;;;0.40;;
3066;SDS011;1544;48.834;9.194;2022-09-09T14:18:46;0.60;;;0.50;;
3066;SDS011;1544;48.834;9.194;2022-09-09T14:21:23;1.47;;;0.50;;
3066;SDS011;1544;48.834;9.194;2022-09-09T14:23:58;1.70;;;0.40;;
3066;SDS011;1544;48.834;9.194;2022-09-09T14:26:33;1.17;;;0.60;;
3066;SDS011;1544;48.834;9.194;2022-09-09T14:29:08;1.17;;;0.50;;
3066;SDS011;1544;48.834;9.194;2022-09-09T14:31:43;2.10;;;0.60;;
3066;SDS011;1544;48.834;9.194;2022-09-09T14:34:18;2.93;;;0.47;;
3066;SDS011;1544;48.834;9.194;2022-09-09T14:36:54;1.27;;;0.50;;
3066;SDS011;1544;48.834;9.194;2022-09-09T14:39:29;0.57;;;0.50;;
3066;SDS011;1544;48.834;9.194;2022-09-09T14:42:04;0.47;;;0.40;;
3066;SDS011;1544;48.834;9.194;2022-09-09T14:44:39;0.67;;;0.50;;
3066;SDS011;1544;48.834;9.194;2022-09-09T14:47:14;0.67;;;0.50;;
3066;SDS011;1544;48.834;9.194;2022-09-09T14:49:49;1.13;;;0.50;;
3066;SDS011;1544;48.834;9.194;2022-09-09T14:52:24;0.50;;;0.50;;
3066;SDS011;1544;48.834;9.194;2022-09-09T14:55:00;3.30;;;0.57;;
3066;SDS011;1544;48.834;9.194;2022-09-09T14:57:35;3.73;;;0.40;;
3066;SDS011;1544;48.834;9.194;2022-09-09T15:00:10;0.50;;;0.40;;
3066;SDS011;1544;48.834;9.194;2022-09-09T15:02:46;1.80;;;0.50;;
3066;SDS011;1544;48.834;9.194;2022-09-09T15:05:22;0.60;;;0.50;;
3066;SDS011;1544;48.834;9.194;2022-09-09T15:07:58;0.50;;;0.40;;
3066;SDS011;1544;48.834;9.194;2022-09-09T15:10:33;0.60;;;0.43;;
3066;SDS011;1544;48.834;9.194;2022-09-09T15:13:08;0.50;;;0.40;;
3066;SDS011;1544;48.834;9.194;2022-09-09T15:15:43;0.80;;;0.40;;
3066;SDS011;1544;48.834;9.194;2022-09-09T15:18:18;0.40;;;0.40;;
3066;SDS011;1544;48.834;9.194;2022-09-09T15:20:53;0.50;;;0.40;;
3066;SDS011;1544;48.834;9.194;2022-09-09T15:23:30;0.57;;;0.40;;
3066;SDS011;1544;48.834;9.194;2022-09-09T15:26:07;1.23;;;0.30;;
3066;SDS011;1544;48.834;9.194;2022-09-09T15:28:43;0.40;;;0.40;;
3066;SDS011;1544;48.834;9.194;2022-09-09T15:31:22;0.50;;;0.40;;
3066;SDS011;1544;48.834;9.194;2022-09-09T15:34:04;1.00;;;0.40;;
3066;SDS011;1544;48.834;9.194;2022-09-09T15:36:42;0.73;;;0.40;;
3066;SDS011;1544;48.834;9.194;2022-09-09T15:39:20;0.50;;;0.50;;
3066;SDS011;1544;48.834;9.194;2022-09-09T15:41:55;0.60;;;0.50;;
3066;SDS011;1544;48.834;9.194;2022-09-09T15:44:37;1.03;;;0.40;;
3066;SDS011;1544;48.834;9.194;2022-09-09T15:47:14;0.70;;;0.53;;
3066;SDS011;1544;48.834;9.194;2022-09-09T15:49:49;1.60;;;0.57;;
3066;SDS011;1544;48.834;9.194;2022-09-09T15:52:24;0.60;;;0.50;;
3066;SDS011;1544;48.834;9.194;2022-09-09T15:54:59;1.20;;;0.70;;
3066;SDS011;1544;48.834;9.194;2022-09-09T15:57:34;0.77;;;0.50;;
3066;SDS011;1544;48.834;9.194;2022-09-09T16:00:10;1.37;;;0.60;;
3066;SDS011;1544;48.834;9.194;2022-09-09T16:02:47;0.70;;;0.60;;
3066;SDS011;1544;48.834;9.194;2022-09-09T16:05:23;0.87;;;0.50;;
3066;SDS011;1544;48.834;9.194;2022-09-09T16:07:58;0.67;;;0.40;;
3066;SDS011;1544;48.834;9.194;2022-09-09T16:10:33;1.23;;;0.60;;
3066;SDS011;1544;48.834;9.194;2022-09-09T16:13:08;0.90;;;0.50;;
3066;SDS011;1544;48.834;9.194;2022-09-09T16:15:43;0.80;;;0.50;;
3066;SDS011;1544;48.834;9.194;2022-09-09T16:18:18;0.50;;;0.50;;
3066;SDS011;1544;48.834;9.194;2022-09-09T16:20:54;1.13;;;0.50;;
3066;SDS011;1544;48.834;9.194;2022-09-09T16:23:30;0.60;;;0.50;;
3066;SDS011;1544;48.834;9.194;2022-09-09T16:26:08;0.70;;;0.60;;
3066;SDS011;1544;48.834;9.194;2022-09-09T16:28:46;1.07;;;0.50;;
3066;SDS011;1544;48.834;9.194;2022-09-09T16:31:22;1.80;;;0.30;;
3066;SDS011;1544;48.834;9.194;2022-09-09T16:33:58;1.70;;;0.37;;
3066;SDS011;1544;48.834;9.194;2022-09-09T16:36:34;0.70;;;0.30;;
3066;SDS011;1544;48.834;9.194;2022-09-09T16:39:14;1.17;;;0.30;;
3066;SDS011;1544;48.834;9.194;2022-09-09T16:41:52;0.50;;;0.30;;
3066;SDS011;1544;48.834;9.194;2022-09-09T16:44:27;1.27;;;0.30;;
3066;SDS011;1544;48.834;9.194;2022-09-09T16:47:02;0.40;;;0.40;;
3066;SDS011;1544;48.834;9.194;2022-09-09T16:49:37;0.50;;;0.40;;
3066;SDS011;1544;48.834;9.194;2022-09-09T16:52:12;1.23;;;0.40;;
3066;SDS011;1544;48.834;9.194;2022-09-09T16:54:53;1.10;;;0.40;;
3066;SDS011;1544;48.834;9.194;2022-09-09T16:57:28;1.13;;;0.50;;
3066;SDS011;1544;48.834;9.194;2022-09-09T17:00:05;1.40;;;0.40;;
3066;SDS011;1544;48.834;9.194;2022-09-09T17:02:41;0.30;;;0.30;;
3066;SDS011;1544;48.834;9.194;2022-09-09T17:05:17;0.43;;;0.30;;
3066;SDS011;1544;48.834;9.194;2022-09-09T17:07:53;1.13;;;0.40;;
3066;SDS011;1544;48.834;9.194;2022-09-09T17:10:31;0.80;;;0.30;;
3066;SDS011;1544;48.834;9.194;2022-09-09T17:13:06;0.70;;;0.40;;
3066;SDS011;1544;48.834;9.194;2022-09-09T17:15:42;0.60;;;0.40;;
3066;SDS011;1544;48.834;9.194;2022-09-09T17:18:17;0.40;;;0.40;;
3066;SDS011;1544;48.834;9.194;2022-09-09T17:20:52;0.40;;;0.40;;
3066;SDS011;1544;48.834;9.194;2022-09-09T17:23:27;0.40;;;0.40;;
3066;SDS011;1544;48.834;9.194;2022-09-09T17:26:03;0.63;;;0.60;;
3066;SDS011;1544;48.834;9.194;2022-09-09T17:28:43;0.80;;;0.50;;
3066;SDS011;1544;48.834;9.194;2022-09-09T17:31:19;0.50;;;0.40;;
3066;SDS011;1544;48.834;9.194;2022-09-09T17:33:55;0.43;;;0.43;;
3066;SDS011;1544;48.834;9.194;2022-09-09T17:36:31;0.50;;;0.50;;
3066;SDS011;1544;48.834;9.194;2022-09-09T17:39:08;0.50;;;0.50;;
3066;SDS011;1544;48.834;9.194;2022-09-09T17:41:43;0.47;;;0.47;;
3066;SDS011;1544;48.834;9.194;2022-09-09T17:44:18;0.77;;;0.50;;
3066;SDS011;1544;48.834;9.194;2022-09-09T17:46:53;0.73;;;0.60;;
3066;SDS011;1544;48.834;9.194;2022-09-09T17:49:30;0.50;;;0.40;;
3066;SDS011;1544;48.834;9.194;2022-09-09T17:52:05;0.60;;;0.60;;
3066;SDS011;1544;48.834;9.194;2022-09-09T17:54:40;0.50;;;0.50;;
3066;SDS011;1544;48.834;9.194;2022-09-09T17:57:15;1.17;;;0.60;;
3066;SDS011;1544;48.834;9.194;2022-09-09T17:59:53;0.50;;;0.50;;
3066;SDS011;1544;48.834;9.194;2022-09-09T18:02:28;0.50;;;0.50;;
3066;SDS011;1544;48.834;9.194;2022-09-09T18:05:03;0.60;;;0.60;;
3066;SDS011;1544;48.834;9.194;2022-09-09T18:07:39;0.60;;;0.50;;
3066;SDS011;1544;48.834;9.194;2022-09-09T18:10:14;0.50;;;0.50;;